createdAt,value
2018-12-18T00:00:37.838Z,3.67
2018-12-18T00:01:37.750Z,3.56
2018-12-18T00:02:37.740Z,3.59
2018-12-18T00:03:39.396Z,3.59
2018-12-18T00:04:37.702Z,3.49
2018-12-18T00:05:37.688Z,3.45
2018-12-18T00:06:37.669Z,3.49
2018-12-18T00:07:37.656Z,3.50
2018-12-18T00:08:37.639Z,3.53
2018-12-18T00:09:37.624Z,3.41
2018-12-18T00:10:37.610Z,3.34
2018-12-18T00:11:37.594Z,3.33
2018-12-18T00:12:37.575Z,3.15
2018-12-18T00:13:37.560Z,3.19
2018-12-18T00:14:37.542Z,3.23
2018-12-18T00:15:37.530Z,3.16
2018-12-18T00:16:37.512Z,3.16
2018-12-18T00:17:37.497Z,3.15
2018-12-18T00:18:37.481Z,3.08
2018-12-18T00:19:37.463Z,3.13
2018-12-18T00:20:37.447Z,3.08
2018-12-18T00:21:37.433Z,3.04
2018-12-18T00:22:37.417Z,3.05
2018-12-18T00:23:37.402Z,3.13
2018-12-18T00:24:37.384Z,3.10
2018-12-18T00:25:37.370Z,3.08
2018-12-18T00:26:37.352Z,3.12
2018-12-18T00:27:37.337Z,3.10
2018-12-18T00:28:37.321Z,3.13
2018-12-18T00:29:37.308Z,3.05
2018-12-18T00:30:37.290Z,3.07
2018-12-18T00:31:37.273Z,3.04
2018-12-18T00:32:37.259Z,3.01
2018-12-18T00:33:37.243Z,2.94
2018-12-18T00:34:37.226Z,2.99
2018-12-18T00:35:37.210Z,3.02
2018-12-18T00:36:37.194Z,2.99
2018-12-18T00:37:37.177Z,2.99
2018-12-18T00:38:37.163Z,3.01
2018-12-18T00:39:37.148Z,3.05
2018-12-18T00:40:37.132Z,2.98
2018-12-18T00:41:37.115Z,2.98
2018-12-18T00:42:37.103Z,3.16
2018-12-18T00:43:37.083Z,3.22
2018-12-18T00:44:37.067Z,3.22
2018-12-18T00:45:37.052Z,3.13
2018-12-18T00:46:37.035Z,3.16
2018-12-18T00:47:37.021Z,3.15
2018-12-18T00:48:37.002Z,3.22
2018-12-18T00:49:36.989Z,3.15
2018-12-18T00:50:36.970Z,3.25
2018-12-18T00:51:36.954Z,3.28
2018-12-18T00:52:36.939Z,3.17
2018-12-18T00:53:36.923Z,3.22
2018-12-18T00:54:36.906Z,3.15
2018-12-18T00:55:36.890Z,3.08
2018-12-18T00:56:36.874Z,3.13
2018-12-18T00:57:36.859Z,3.08
2018-12-18T00:58:36.842Z,3.10
2018-12-18T00:59:36.827Z,3.10
2018-12-18T01:00:36.814Z,3.15
2018-12-18T01:01:36.796Z,3.13
2018-12-18T01:02:36.779Z,3.20
2018-12-18T01:03:36.764Z,3.26
2018-12-18T01:04:36.747Z,3.10
2018-12-18T01:05:36.731Z,3.20
2018-12-18T01:06:36.713Z,3.25
2018-12-18T01:07:36.697Z,3.15
2018-12-18T01:08:36.687Z,3.10
2018-12-18T01:09:36.670Z,3.10
2018-12-18T01:10:36.650Z,3.05
2018-12-18T01:11:36.634Z,2.99
2018-12-18T01:12:36.624Z,3.08
2018-12-18T01:13:36.605Z,3.04
2018-12-18T01:14:36.586Z,3.05
2018-12-18T01:15:36.571Z,3.04
2018-12-18T01:16:36.554Z,3.10
2018-12-18T01:17:36.538Z,3.01
2018-12-18T01:18:36.522Z,3.05
2018-12-18T01:19:36.562Z,2.99
2018-12-18T01:20:36.491Z,3.05
2018-12-18T01:21:36.475Z,2.99
2018-12-18T01:22:36.458Z,3.10
2018-12-18T01:23:36.449Z,3.12
2018-12-18T01:24:36.430Z,3.04
2018-12-18T01:25:36.412Z,3.05
2018-12-18T01:26:36.395Z,2.97
2018-12-18T01:27:36.380Z,3.05
2018-12-18T01:28:36.364Z,3.05
2018-12-18T01:29:36.347Z,3.01
2018-12-18T01:30:36.330Z,3.07
2018-12-18T01:31:36.314Z,3.02
2018-12-18T01:32:36.299Z,3.01
2018-12-18T01:33:36.282Z,3.12
2018-12-18T01:34:36.265Z,3.05
2018-12-18T01:35:36.250Z,2.97
2018-12-18T01:36:36.235Z,3.01
2018-12-18T01:37:36.219Z,3.01
2018-12-18T01:38:36.205Z,3.02
2018-12-18T01:39:36.255Z,2.98
2018-12-18T01:40:36.171Z,2.89
2018-12-18T01:41:36.153Z,3.01
2018-12-18T01:42:36.137Z,2.95
2018-12-18T01:43:36.123Z,2.90
2018-12-18T01:44:36.105Z,2.97
2018-12-18T01:45:36.094Z,3.05
2018-12-18T01:46:36.074Z,3.01
2018-12-18T01:47:36.059Z,2.98
2018-12-18T01:48:36.041Z,2.89
2018-12-18T01:49:36.027Z,2.98
2018-12-18T01:50:36.010Z,3.02
2018-12-18T01:51:35.994Z,2.99
2018-12-18T01:52:35.979Z,2.87
2018-12-18T01:53:35.961Z,2.98
2018-12-18T01:54:35.947Z,3.01
2018-12-18T01:55:35.931Z,3.05
2018-12-18T01:56:35.916Z,3.13
2018-12-18T01:57:35.937Z,3.19
2018-12-18T01:58:35.883Z,3.25
2018-12-18T01:59:35.865Z,3.41
2018-12-18T02:00:35.850Z,3.59
2018-12-18T02:01:35.833Z,3.59
2018-12-18T02:02:35.819Z,3.80
2018-12-18T02:03:35.801Z,3.81
2018-12-18T02:04:35.785Z,3.71
2018-12-18T02:05:35.771Z,3.74
2018-12-18T02:06:35.754Z,3.70
2018-12-18T02:07:35.737Z,3.72
2018-12-18T02:08:35.721Z,3.59
2018-12-18T02:09:35.707Z,3.57
2018-12-18T02:10:35.689Z,3.72
2018-12-18T02:11:35.674Z,3.60
2018-12-18T02:12:35.659Z,3.56
2018-12-18T02:13:35.642Z,3.52
2018-12-18T02:14:35.625Z,3.42
2018-12-18T02:15:35.610Z,3.45
2018-12-18T02:16:35.593Z,3.37
2018-12-18T02:17:35.579Z,3.42
2018-12-18T02:18:35.560Z,3.42
2018-12-18T02:19:35.547Z,3.28
2018-12-18T02:20:35.529Z,3.22
2018-12-18T02:21:35.514Z,3.44
2018-12-18T02:22:35.501Z,3.41
2018-12-18T02:23:35.482Z,3.37
2018-12-18T02:24:35.467Z,3.42
2018-12-18T02:25:35.452Z,3.34
2018-12-18T02:26:35.432Z,3.44
2018-12-18T02:27:35.415Z,3.34
2018-12-18T02:28:35.401Z,3.45
2018-12-18T02:29:35.385Z,3.35
2018-12-18T02:30:35.368Z,3.30
2018-12-18T02:31:35.354Z,3.31
2018-12-18T02:32:35.336Z,3.28
2018-12-18T02:33:35.322Z,3.25
2018-12-18T02:34:35.307Z,3.33
2018-12-18T02:35:35.289Z,3.22
2018-12-18T02:36:35.275Z,3.19
2018-12-18T02:37:35.259Z,3.23
2018-12-18T02:38:35.240Z,3.28
2018-12-18T02:39:35.227Z,3.22
2018-12-18T02:40:35.212Z,3.20
2018-12-18T02:41:35.194Z,3.45
2018-12-18T02:42:35.179Z,3.42
2018-12-18T02:43:35.160Z,3.52
2018-12-18T02:44:35.143Z,3.56
2018-12-18T02:45:35.131Z,3.45
2018-12-18T02:46:35.109Z,3.53
2018-12-18T02:47:35.094Z,3.41
2018-12-18T02:48:35.078Z,3.62
2018-12-18T02:49:35.062Z,3.60
2018-12-18T02:50:35.045Z,3.57
2018-12-18T02:51:35.038Z,3.35
2018-12-18T02:52:35.013Z,3.35
2018-12-18T02:53:34.997Z,3.37
2018-12-18T02:54:34.981Z,3.45
2018-12-18T02:55:34.963Z,3.44
2018-12-18T02:56:34.949Z,3.52
2018-12-18T02:57:34.933Z,3.52
2018-12-18T02:58:34.914Z,3.60
2018-12-18T02:59:34.901Z,3.56
2018-12-18T03:00:34.883Z,3.56
2018-12-18T03:01:34.867Z,3.64
2018-12-18T03:02:34.853Z,3.54
2018-12-18T03:03:34.834Z,3.60
2018-12-18T03:04:34.817Z,3.50
2018-12-18T03:05:34.800Z,3.49
2018-12-18T03:06:34.783Z,3.50
2018-12-18T03:07:34.767Z,3.39
2018-12-18T03:08:34.754Z,3.34
2018-12-18T03:09:34.746Z,3.31
2018-12-18T03:10:34.716Z,3.53
2018-12-18T03:11:34.701Z,3.42
2018-12-18T03:12:34.685Z,3.46
2018-12-18T03:13:34.669Z,3.49
2018-12-18T03:14:34.654Z,3.57
2018-12-18T03:15:34.636Z,3.54
2018-12-18T03:16:34.621Z,3.52
2018-12-18T03:17:34.605Z,3.56
2018-12-18T03:18:34.589Z,3.52
2018-12-18T03:19:34.572Z,3.60
2018-12-18T03:20:34.553Z,3.59
2018-12-18T03:21:34.542Z,3.50
2018-12-18T03:22:34.537Z,3.49
2018-12-18T03:23:34.504Z,3.49
2018-12-18T03:24:34.489Z,3.30
2018-12-18T03:25:34.474Z,3.22
2018-12-18T03:26:34.461Z,3.15
2018-12-18T03:27:34.440Z,3.22
2018-12-18T03:28:34.424Z,3.31
2018-12-18T03:29:34.407Z,3.19
2018-12-18T03:30:34.398Z,3.10
2018-12-18T03:31:34.374Z,3.30
2018-12-18T03:32:34.382Z,3.31
2018-12-18T03:33:34.347Z,3.35
2018-12-18T03:34:34.321Z,3.22
2018-12-18T03:35:34.309Z,3.45
2018-12-18T03:36:34.293Z,3.52
2018-12-18T03:37:34.276Z,3.45
2018-12-18T03:38:34.265Z,3.44
2018-12-18T03:39:34.244Z,3.37
2018-12-18T03:40:34.225Z,3.25
2018-12-18T03:41:34.208Z,3.23
2018-12-18T03:42:34.193Z,3.13
2018-12-18T03:43:34.180Z,3.13
2018-12-18T03:44:34.157Z,3.19
2018-12-18T03:45:34.143Z,3.25
2018-12-18T03:46:34.124Z,3.25
2018-12-18T03:47:34.110Z,3.20
2018-12-18T03:48:34.095Z,3.22
2018-12-18T03:49:34.077Z,3.08
2018-12-18T03:50:34.059Z,3.08
2018-12-18T03:51:34.041Z,3.15
2018-12-18T03:52:34.027Z,3.22
2018-12-18T03:53:34.009Z,3.22
2018-12-18T03:54:33.993Z,3.12
2018-12-18T03:55:33.975Z,3.15
2018-12-18T03:56:33.958Z,3.19
2018-12-18T03:57:33.940Z,3.19
2018-12-18T03:58:33.924Z,3.31
2018-12-18T03:59:33.909Z,3.16
2018-12-18T04:00:33.892Z,3.28
2018-12-18T04:01:33.875Z,3.19
2018-12-18T04:02:33.859Z,3.19
2018-12-18T04:03:33.841Z,3.19
2018-12-18T04:04:35.849Z,3.17
2018-12-18T04:05:33.808Z,3.22
2018-12-18T04:06:33.793Z,3.17
2018-12-18T04:07:33.777Z,3.26
2018-12-18T04:08:33.759Z,3.26
2018-12-18T04:09:33.744Z,3.26
2018-12-18T04:10:33.725Z,3.19
2018-12-18T04:11:33.709Z,3.22
2018-12-18T04:12:33.691Z,3.25
2018-12-18T04:13:33.678Z,3.31
2018-12-18T04:14:33.660Z,3.23
2018-12-18T04:15:33.642Z,3.19
2018-12-18T04:16:33.625Z,3.17
2018-12-18T04:17:33.609Z,3.19
2018-12-18T04:18:33.592Z,3.08
2018-12-18T04:19:33.574Z,3.05
2018-12-18T04:20:33.560Z,3.08
2018-12-18T04:21:33.542Z,3.01
2018-12-18T04:22:33.523Z,2.97
2018-12-18T04:23:33.507Z,2.98
2018-12-18T04:24:33.491Z,2.87
2018-12-18T04:25:33.474Z,2.89
2018-12-18T04:26:33.461Z,2.92
2018-12-18T04:27:33.442Z,2.89
2018-12-18T04:28:33.428Z,2.74
2018-12-18T04:29:33.407Z,2.87
2018-12-18T04:30:33.391Z,2.81
2018-12-18T04:31:33.377Z,2.73
2018-12-18T04:32:33.374Z,2.76
2018-12-18T04:33:33.341Z,2.81
2018-12-18T04:34:33.330Z,2.65
2018-12-18T04:35:33.307Z,2.63
2018-12-18T04:36:33.292Z,2.69
2018-12-18T04:37:33.274Z,2.63
2018-12-18T04:38:33.257Z,2.69
2018-12-18T04:39:33.240Z,2.63
2018-12-18T04:40:33.225Z,2.55
2018-12-18T04:41:33.208Z,2.47
2018-12-18T04:42:33.190Z,2.47
2018-12-18T04:43:33.171Z,2.44
2018-12-18T04:44:33.155Z,2.37
2018-12-18T04:45:33.138Z,2.33
2018-12-18T04:46:33.122Z,2.33
2018-12-18T04:47:33.103Z,2.27
2018-12-18T04:48:33.086Z,2.27
2018-12-18T04:49:33.074Z,2.19
2018-12-18T04:50:33.053Z,2.25
2018-12-18T04:51:33.035Z,2.22
2018-12-18T04:52:33.023Z,2.30
2018-12-18T04:53:33.006Z,2.44
2018-12-18T04:54:32.984Z,2.48
2018-12-18T04:55:32.967Z,2.55
2018-12-18T04:56:32.951Z,2.53
2018-12-18T04:57:32.933Z,2.62
2018-12-18T04:58:32.915Z,2.68
2018-12-18T04:59:32.899Z,2.66
2018-12-18T05:00:32.883Z,2.65
2018-12-18T05:01:32.866Z,2.86
2018-12-18T05:02:32.846Z,2.77
2018-12-18T05:03:32.833Z,2.69
2018-12-18T05:04:32.813Z,2.81
2018-12-18T05:05:32.794Z,2.62
2018-12-18T05:06:32.777Z,2.83
2018-12-18T05:07:32.761Z,2.86
2018-12-18T05:08:32.744Z,2.77
2018-12-18T05:09:32.732Z,2.87
2018-12-18T05:10:32.712Z,2.81
2018-12-18T05:11:32.698Z,2.90
2018-12-18T05:12:32.675Z,2.89
2018-12-18T05:13:32.658Z,3.01
2018-12-18T05:14:32.641Z,2.87
2018-12-18T05:15:32.622Z,2.80
2018-12-18T05:16:32.649Z,2.80
2018-12-18T05:17:32.589Z,2.81
2018-12-18T05:18:32.571Z,2.84
2018-12-18T05:19:32.554Z,2.81
2018-12-18T05:20:32.542Z,2.80
2018-12-18T05:21:32.518Z,2.79
2018-12-18T05:22:32.502Z,2.84
2018-12-18T05:23:32.485Z,2.83
2018-12-18T05:24:32.469Z,2.84
2018-12-18T05:25:32.451Z,2.84
2018-12-18T05:26:32.433Z,2.73
2018-12-18T05:27:32.416Z,2.77
2018-12-18T05:28:32.399Z,2.89
2018-12-18T05:29:32.381Z,3.04
2018-12-18T05:30:32.364Z,3.05
2018-12-18T05:31:32.347Z,2.89
2018-12-18T05:32:32.331Z,2.83
2018-12-18T05:33:32.316Z,2.94
2018-12-18T05:34:32.294Z,2.90
2018-12-18T05:35:32.278Z,2.92
2018-12-18T05:36:32.262Z,2.77
2018-12-18T05:37:32.245Z,2.86
2018-12-18T05:38:32.225Z,2.90
2018-12-18T05:39:32.207Z,2.90
2018-12-18T05:40:32.191Z,2.79
2018-12-18T05:41:32.173Z,2.76
2018-12-18T05:42:32.157Z,2.74
2018-12-18T05:43:32.140Z,2.83
2018-12-18T05:44:32.120Z,2.69
2018-12-18T05:45:32.105Z,2.74
2018-12-18T05:46:32.089Z,2.80
2018-12-18T05:47:32.069Z,2.74
2018-12-18T05:48:32.054Z,2.76
2018-12-18T05:49:32.036Z,2.77
2018-12-18T05:50:32.019Z,2.90
2018-12-18T05:51:32.001Z,2.94
2018-12-18T05:52:31.983Z,2.84
2018-12-18T05:53:31.966Z,2.89
2018-12-18T05:54:31.948Z,2.66
2018-12-18T05:55:31.930Z,2.61
2018-12-18T05:56:31.915Z,2.66
2018-12-18T05:57:31.900Z,2.77
2018-12-18T05:58:31.879Z,2.79
2018-12-18T05:59:31.862Z,2.77
2018-12-18T06:00:31.846Z,2.74
2018-12-18T06:01:31.828Z,2.80
2018-12-18T06:02:31.809Z,2.81
2018-12-18T06:03:31.792Z,2.80
2018-12-18T06:04:31.774Z,2.79
2018-12-18T06:05:31.758Z,2.65
2018-12-18T06:06:31.742Z,2.71
2018-12-18T06:07:31.723Z,2.68
2018-12-18T06:08:31.705Z,2.79
2018-12-18T06:09:31.689Z,2.84
2018-12-18T06:10:31.669Z,2.76
2018-12-18T06:11:31.652Z,2.80
2018-12-18T06:12:31.637Z,2.79
2018-12-18T06:13:31.619Z,2.79
2018-12-18T06:14:31.604Z,2.86
2018-12-18T06:15:31.585Z,2.87
2018-12-18T06:16:31.573Z,2.89
2018-12-18T06:17:31.551Z,3.01
2018-12-18T06:18:31.534Z,3.07
2018-12-18T06:19:31.518Z,2.99
2018-12-18T06:20:31.501Z,3.01
2018-12-18T06:21:31.484Z,2.95
2018-12-18T06:22:31.465Z,2.99
2018-12-18T06:23:31.447Z,3.01
2018-12-18T06:24:31.430Z,2.95
2018-12-18T06:25:31.414Z,3.02
2018-12-18T06:26:31.397Z,2.83
2018-12-18T06:27:31.378Z,2.71
2018-12-18T06:28:31.363Z,2.86
2018-12-18T06:29:31.344Z,2.76
2018-12-18T06:30:31.331Z,2.68
2018-12-18T06:31:31.310Z,2.80
2018-12-18T06:32:31.292Z,2.74
2018-12-18T06:33:31.274Z,2.89
2018-12-18T06:34:31.256Z,2.80
2018-12-18T06:35:31.241Z,2.89
2018-12-18T06:36:31.230Z,2.98
2018-12-18T06:37:31.208Z,2.89
2018-12-18T06:38:31.190Z,2.74
2018-12-18T06:39:31.173Z,2.90
2018-12-18T06:40:31.156Z,2.83
2018-12-18T06:41:31.142Z,2.80
2018-12-18T06:42:31.122Z,3.04
2018-12-18T06:43:31.104Z,3.12
2018-12-18T06:44:31.086Z,2.92
2018-12-18T06:45:31.072Z,3.05
2018-12-18T06:46:31.056Z,3.12
2018-12-18T06:47:31.036Z,3.01
2018-12-18T06:48:31.019Z,2.90
2018-12-18T06:49:31.001Z,2.90
2018-12-18T06:50:30.987Z,2.89
2018-12-18T06:51:30.969Z,2.71
2018-12-18T06:52:30.957Z,2.89
2018-12-18T06:53:30.937Z,2.86
2018-12-18T06:54:30.919Z,2.79
2018-12-18T06:55:30.901Z,2.66
2018-12-18T06:56:30.884Z,2.58
2018-12-18T06:57:30.866Z,2.48
2018-12-18T06:58:30.851Z,2.27
2018-12-18T06:59:30.831Z,2.44
2018-12-18T07:00:30.816Z,2.25
2018-12-18T07:01:30.800Z,2.38
2018-12-18T07:02:30.782Z,2.36
2018-12-18T07:03:30.766Z,2.53
2018-12-18T07:04:30.749Z,2.56
2018-12-18T07:05:30.736Z,2.62
2018-12-18T07:06:30.714Z,2.69
2018-12-18T07:07:30.700Z,2.66
2018-12-18T07:08:30.680Z,2.68
2018-12-18T07:09:30.666Z,2.69
2018-12-18T07:10:30.648Z,2.69
2018-12-18T07:11:30.632Z,2.76
2018-12-18T07:12:30.617Z,2.81
2018-12-18T07:13:30.608Z,2.89
2018-12-18T07:14:30.579Z,2.92
2018-12-18T07:15:30.563Z,2.84
2018-12-18T07:16:30.548Z,2.77
2018-12-18T07:17:30.532Z,2.77
2018-12-18T07:18:30.514Z,2.79
2018-12-18T07:19:30.496Z,2.73
2018-12-18T07:20:30.481Z,2.62
2018-12-18T07:21:30.463Z,2.63
2018-12-18T07:22:30.446Z,2.59
2018-12-18T07:23:30.428Z,2.43
2018-12-18T07:24:30.422Z,2.45
2018-12-18T07:25:30.398Z,2.45
2018-12-18T07:26:30.379Z,2.37
2018-12-18T07:27:30.364Z,2.29
2018-12-18T07:28:30.346Z,2.36
2018-12-18T07:29:30.331Z,2.44
2018-12-18T07:30:30.320Z,2.51
2018-12-18T07:31:30.296Z,2.51
2018-12-18T07:32:30.281Z,2.65
2018-12-18T07:33:30.264Z,2.86
2018-12-18T07:34:33.385Z,3.04
2018-12-18T07:35:30.228Z,3.04
2018-12-18T07:36:30.211Z,3.15
2018-12-18T07:37:30.200Z,3.10
2018-12-18T07:38:30.177Z,2.99
2018-12-18T07:39:30.163Z,2.87
2018-12-18T07:40:30.147Z,2.80
2018-12-18T07:41:30.130Z,2.89
2018-12-18T07:42:30.109Z,2.92
2018-12-18T07:43:30.094Z,2.79
2018-12-18T07:44:30.078Z,2.92
2018-12-18T07:45:30.062Z,2.90
2018-12-18T07:46:30.044Z,2.92
2018-12-18T07:47:30.029Z,2.84
2018-12-18T07:48:30.009Z,2.62
2018-12-18T07:49:29.992Z,2.62
2018-12-18T07:50:29.977Z,2.62
2018-12-18T07:51:29.963Z,2.61
2018-12-18T07:52:29.943Z,2.51
2018-12-18T07:53:29.925Z,2.61
2018-12-18T07:54:29.911Z,2.65
2018-12-18T07:55:29.899Z,2.69
2018-12-18T07:56:29.878Z,2.86
2018-12-18T07:57:29.861Z,2.73
2018-12-18T07:58:29.843Z,2.71
2018-12-18T07:59:29.827Z,2.89
2018-12-18T08:00:29.812Z,2.89
2018-12-18T08:01:29.795Z,2.84
2018-12-18T08:02:29.777Z,2.92
2018-12-18T08:03:29.764Z,2.90
2018-12-18T08:04:29.746Z,2.90
2018-12-18T08:05:30.183Z,2.81
2018-12-18T08:06:29.711Z,2.97
2018-12-18T08:07:29.694Z,3.08
2018-12-18T08:08:29.680Z,3.07
2018-12-18T08:09:29.661Z,3.08
2018-12-18T08:10:29.644Z,3.13
2018-12-18T08:11:29.630Z,2.99
2018-12-18T08:12:29.612Z,2.81
2018-12-18T08:13:29.597Z,2.81
2018-12-18T08:14:29.578Z,2.71
2018-12-18T08:15:29.562Z,2.63
2018-12-18T08:16:29.545Z,2.68
2018-12-18T08:17:29.528Z,2.73
2018-12-18T08:18:29.510Z,2.84
2018-12-18T08:19:29.497Z,2.87
2018-12-18T08:20:29.479Z,2.86
2018-12-18T08:21:29.464Z,2.84
2018-12-18T08:22:29.444Z,2.76
2018-12-18T08:23:29.427Z,2.69
2018-12-18T08:24:29.416Z,2.79
2018-12-18T08:25:29.395Z,2.62
2018-12-18T08:26:29.376Z,2.51
2018-12-18T08:27:29.358Z,2.47
2018-12-18T08:28:29.343Z,2.56
2018-12-18T08:29:29.326Z,2.43
2018-12-18T08:30:29.308Z,2.37
2018-12-18T08:31:29.293Z,2.33
2018-12-18T08:32:29.277Z,2.33
2018-12-18T08:33:29.260Z,2.40
2018-12-18T08:34:29.243Z,2.36
2018-12-18T08:35:29.229Z,2.37
2018-12-18T08:36:29.206Z,2.43
2018-12-18T08:37:29.192Z,2.37
2018-12-18T08:38:29.171Z,2.38
2018-12-18T08:39:29.155Z,2.36
2018-12-18T08:40:29.140Z,2.44
2018-12-18T08:41:29.121Z,2.40
2018-12-18T08:42:29.105Z,2.41
2018-12-18T08:43:29.088Z,2.36
2018-12-18T08:44:29.070Z,2.30
2018-12-18T08:45:29.102Z,2.36
2018-12-18T08:46:29.035Z,2.33
2018-12-18T08:47:29.018Z,2.38
2018-12-18T08:48:29.004Z,2.36
2018-12-18T08:49:28.986Z,2.37
2018-12-18T08:50:28.967Z,2.33
2018-12-18T08:51:28.952Z,2.43
2018-12-18T08:52:28.935Z,2.38
2018-12-18T08:53:28.916Z,2.38
2018-12-18T08:54:28.900Z,2.37
2018-12-18T08:55:28.882Z,2.44
2018-12-18T08:56:28.867Z,2.50
2018-12-18T08:57:28.851Z,2.53
2018-12-18T08:58:28.834Z,2.58
2018-12-18T08:59:28.817Z,2.58
2018-12-18T09:00:28.800Z,2.58
2018-12-18T09:01:28.782Z,2.48
2018-12-18T09:02:28.765Z,2.48
2018-12-18T09:03:28.750Z,2.58
2018-12-18T09:04:28.733Z,2.53
2018-12-18T09:05:28.715Z,2.58
2018-12-18T09:06:28.698Z,2.51
2018-12-18T09:07:28.680Z,2.62
2018-12-18T09:08:28.691Z,2.61
2018-12-18T09:09:28.651Z,2.55
2018-12-18T09:10:28.631Z,2.53
2018-12-18T09:11:28.616Z,2.51
2018-12-18T09:12:28.598Z,2.58
2018-12-18T09:13:28.584Z,2.62
2018-12-18T09:14:28.563Z,2.61
2018-12-18T09:15:28.549Z,2.62
2018-12-18T09:16:28.591Z,2.65
2018-12-18T09:17:28.515Z,2.66
2018-12-18T09:18:28.497Z,2.68
2018-12-18T09:19:28.481Z,2.69
2018-12-18T09:20:28.465Z,2.80
2018-12-18T09:21:28.447Z,2.84
2018-12-18T09:22:28.431Z,2.81
2018-12-18T09:23:28.415Z,2.77
2018-12-18T09:24:28.398Z,2.86
2018-12-18T09:25:28.380Z,2.77
2018-12-18T09:26:28.361Z,2.77
2018-12-18T09:27:28.346Z,2.77
2018-12-18T09:28:28.331Z,2.83
2018-12-18T09:29:28.312Z,2.71
2018-12-18T09:30:28.294Z,2.69
2018-12-18T09:31:28.282Z,2.69
2018-12-18T09:32:28.268Z,2.66
2018-12-18T09:33:28.245Z,2.48
2018-12-18T09:34:28.228Z,2.38
2018-12-18T09:35:28.211Z,2.33
2018-12-18T09:36:28.196Z,2.32
2018-12-18T09:37:28.177Z,2.27
2018-12-18T09:38:28.159Z,2.18
2018-12-18T09:39:28.141Z,2.18
2018-12-18T09:40:28.125Z,2.23
2018-12-18T09:41:28.107Z,2.32
2018-12-18T09:42:28.093Z,2.43
2018-12-18T09:43:28.082Z,2.36
2018-12-18T09:44:28.057Z,2.47
2018-12-18T09:45:28.041Z,2.48
2018-12-18T09:46:28.022Z,2.56
2018-12-18T09:47:28.005Z,2.59
2018-12-18T09:48:27.990Z,2.71
2018-12-18T09:49:27.972Z,2.68
2018-12-18T09:50:27.956Z,2.61
2018-12-18T09:51:27.938Z,2.68
2018-12-18T09:52:27.919Z,2.69
2018-12-18T09:53:27.909Z,2.76
2018-12-18T09:54:27.887Z,2.69
2018-12-18T09:55:27.868Z,2.79
2018-12-18T09:56:27.852Z,2.77
2018-12-18T09:57:27.833Z,2.79
2018-12-18T09:58:27.823Z,2.86
2018-12-18T09:59:27.800Z,2.87
2018-12-18T10:00:27.783Z,2.81
2018-12-18T10:01:27.766Z,2.81
2018-12-18T10:02:27.751Z,2.79
2018-12-18T10:03:33.358Z,2.84
2018-12-18T10:04:27.717Z,2.98
2018-12-18T10:05:27.701Z,2.95
2018-12-18T10:06:27.682Z,2.90
2018-12-18T10:07:27.665Z,2.86
2018-12-18T10:08:27.648Z,2.89
2018-12-18T10:09:27.635Z,2.77
2018-12-18T10:10:27.617Z,2.80
2018-12-18T10:11:27.598Z,2.79
2018-12-18T10:12:27.593Z,2.84
2018-12-18T10:13:27.568Z,2.80
2018-12-18T10:14:27.552Z,2.94
2018-12-18T10:15:27.532Z,3.08
2018-12-18T10:16:27.514Z,3.22
2018-12-18T10:17:27.497Z,3.13
2018-12-18T10:18:27.482Z,3.08
2018-12-18T10:19:27.463Z,3.08
2018-12-18T10:20:27.448Z,3.19
2018-12-18T10:21:27.434Z,3.08
2018-12-18T10:22:27.415Z,3.17
2018-12-18T10:23:27.398Z,3.28
2018-12-18T10:24:27.381Z,3.37
2018-12-18T10:25:27.367Z,3.45
2018-12-18T10:26:27.347Z,3.56
2018-12-18T10:27:27.333Z,3.50
2018-12-18T10:28:27.318Z,3.56
2018-12-18T10:29:27.301Z,3.70
2018-12-18T10:30:27.282Z,3.81
2018-12-18T10:31:27.268Z,3.89
2018-12-18T10:32:27.251Z,3.72
2018-12-18T10:33:27.303Z,3.56
2018-12-18T10:34:27.222Z,3.52
2018-12-18T10:35:27.200Z,3.44
2018-12-18T10:36:27.184Z,3.23
2018-12-18T10:37:27.170Z,3.31
2018-12-18T10:38:27.153Z,3.22
2018-12-18T10:39:27.138Z,3.10
2018-12-18T10:40:27.119Z,3.08
2018-12-18T10:41:27.105Z,3.01
2018-12-18T10:42:27.086Z,3.05
2018-12-18T10:43:27.072Z,2.99
2018-12-18T10:44:27.057Z,2.94
2018-12-18T10:45:27.038Z,2.94
2018-12-18T10:46:27.021Z,2.92
2018-12-18T10:47:27.006Z,2.90
2018-12-18T10:48:26.988Z,2.84
2018-12-18T10:49:26.972Z,2.92
2018-12-18T10:50:26.959Z,3.05
2018-12-18T10:51:26.941Z,3.01
2018-12-18T10:52:26.926Z,3.07
2018-12-18T10:53:26.909Z,3.10
2018-12-18T10:54:26.892Z,3.08
2018-12-18T10:55:26.875Z,3.05
2018-12-18T10:56:26.859Z,3.10
2018-12-18T10:57:26.846Z,3.13
2018-12-18T10:58:26.830Z,3.08
2018-12-18T10:59:26.816Z,3.01
2018-12-18T11:00:26.794Z,3.04
2018-12-18T11:01:26.779Z,3.07
2018-12-18T11:02:26.763Z,3.07
2018-12-18T11:03:26.750Z,3.07
2018-12-18T11:04:26.730Z,3.05
2018-12-18T11:05:26.715Z,3.04
2018-12-18T11:06:26.699Z,3.07
2018-12-18T11:07:26.683Z,3.04
2018-12-18T11:08:26.671Z,3.01
2018-12-18T11:09:26.652Z,3.04
2018-12-18T11:10:26.634Z,3.02
2018-12-18T11:11:26.620Z,3.13
2018-12-18T11:12:26.604Z,3.05
2018-12-18T11:13:26.586Z,3.13
2018-12-18T11:14:26.572Z,3.10
2018-12-18T11:15:26.556Z,3.19
2018-12-18T11:16:26.538Z,3.28
2018-12-18T11:17:26.520Z,3.31
2018-12-18T11:18:26.503Z,3.37
2018-12-18T11:19:26.488Z,3.35
2018-12-18T11:20:26.470Z,3.37
2018-12-18T11:21:26.458Z,3.37
2018-12-18T11:22:26.439Z,3.26
2018-12-18T11:23:26.424Z,3.26
2018-12-18T11:24:26.408Z,3.13
2018-12-18T11:25:26.392Z,3.04
2018-12-18T11:26:26.374Z,3.04
2018-12-18T11:27:26.366Z,3.08
2018-12-18T11:28:26.343Z,3.08
2018-12-18T11:29:26.327Z,3.15
2018-12-18T11:30:26.311Z,3.13
2018-12-18T11:31:26.297Z,3.25
2018-12-18T11:32:32.890Z,3.10
2018-12-18T11:33:26.262Z,3.04
2018-12-18T11:34:26.248Z,3.05
2018-12-18T11:35:26.231Z,3.10
2018-12-18T11:36:26.211Z,3.13
2018-12-18T11:37:26.200Z,3.08
2018-12-18T11:38:26.180Z,3.12
2018-12-18T11:39:26.164Z,3.01
2018-12-18T11:40:26.146Z,3.01
2018-12-18T11:41:26.132Z,2.92
2018-12-18T11:42:26.113Z,2.89
2018-12-18T11:43:26.101Z,2.99
2018-12-18T11:44:26.086Z,2.99
2018-12-18T11:45:26.066Z,3.05
2018-12-18T11:46:26.050Z,3.01
2018-12-18T11:47:26.033Z,3.02
2018-12-18T11:48:26.020Z,2.99
2018-12-18T11:49:26.000Z,3.02
2018-12-18T11:50:25.984Z,3.04
2018-12-18T11:51:25.970Z,3.16
2018-12-18T11:52:25.952Z,3.13
2018-12-18T11:53:25.935Z,3.22
2018-12-18T11:54:25.918Z,3.35
2018-12-18T11:55:25.962Z,3.44
2018-12-18T11:56:25.886Z,3.44
2018-12-18T11:57:25.868Z,3.41
2018-12-18T11:58:25.853Z,3.31
2018-12-18T11:59:25.836Z,3.15
2018-12-18T12:00:25.819Z,3.13
2018-12-18T12:01:25.804Z,3.02
2018-12-18T12:02:25.790Z,3.12
2018-12-18T12:03:25.774Z,3.01
2018-12-18T12:04:25.761Z,3.05
2018-12-18T12:05:25.738Z,3.02
2018-12-18T12:06:25.721Z,3.04
2018-12-18T12:07:25.703Z,3.07
2018-12-18T12:08:25.689Z,3.02
2018-12-18T12:09:25.675Z,3.17
2018-12-18T12:10:25.657Z,3.20
2018-12-18T12:11:25.645Z,3.12
2018-12-18T12:12:25.622Z,3.08
2018-12-18T12:13:25.609Z,3.19
2018-12-18T12:14:25.619Z,3.17
2018-12-18T12:15:25.575Z,3.10
2018-12-18T12:16:25.558Z,3.04
2018-12-18T12:17:25.540Z,3.08
2018-12-18T12:18:25.522Z,3.07
2018-12-18T12:19:25.509Z,3.05
2018-12-18T12:20:25.490Z,2.97
2018-12-18T12:21:25.476Z,2.97
2018-12-18T12:22:25.458Z,2.94
2018-12-18T12:23:25.440Z,2.95
2018-12-18T12:24:25.427Z,3.01
2018-12-18T12:25:25.408Z,3.10
2018-12-18T12:26:25.393Z,3.16
2018-12-18T12:27:25.376Z,3.20
2018-12-18T12:28:25.358Z,3.23
2018-12-18T12:29:25.348Z,3.33
2018-12-18T12:30:25.325Z,3.34
2018-12-18T12:31:25.309Z,3.42
2018-12-18T12:32:25.294Z,3.23
2018-12-18T12:33:25.281Z,3.34
2018-12-18T12:34:25.262Z,3.39
2018-12-18T12:35:25.244Z,3.37
2018-12-18T12:36:29.623Z,3.41
2018-12-18T12:37:25.213Z,3.50
2018-12-18T12:38:25.196Z,3.44
2018-12-18T12:39:25.184Z,3.52
2018-12-18T12:40:25.166Z,3.49
2018-12-18T12:41:25.153Z,3.45
2018-12-18T12:42:25.133Z,3.37
2018-12-18T12:43:25.117Z,3.46
2018-12-18T12:44:25.101Z,3.42
2018-12-18T12:45:25.090Z,3.42
2018-12-18T12:46:25.068Z,3.54
2018-12-18T12:47:25.050Z,3.63
2018-12-18T12:48:25.037Z,3.59
2018-12-18T12:49:25.020Z,3.68
2018-12-18T12:50:25.003Z,3.78
2018-12-18T12:51:24.987Z,3.81
2018-12-18T12:52:24.970Z,3.78
2018-12-18T12:53:24.955Z,3.84
2018-12-18T12:54:24.939Z,3.90
2018-12-18T12:55:24.925Z,4.07
2018-12-18T12:56:24.908Z,4.24
2018-12-18T12:57:24.893Z,4.10
2018-12-18T12:58:24.875Z,4.11
2018-12-18T12:59:24.862Z,3.93
2018-12-18T13:00:24.843Z,3.96
2018-12-18T13:01:24.833Z,3.90
2018-12-18T13:02:24.813Z,3.89
2018-12-18T13:03:24.798Z,4.04
2018-12-18T13:04:24.781Z,3.99
2018-12-18T13:05:24.766Z,3.93
2018-12-18T13:06:24.748Z,3.82
2018-12-18T13:07:24.731Z,3.80
2018-12-18T13:08:24.717Z,3.81
2018-12-18T13:09:24.707Z,3.98
2018-12-18T13:10:24.685Z,4.11
2018-12-18T13:11:24.669Z,4.02
2018-12-18T13:12:24.657Z,4.18
2018-12-18T13:13:24.640Z,4.14
2018-12-18T13:14:24.622Z,4.21
2018-12-18T13:15:24.606Z,4.18
2018-12-18T13:16:24.590Z,4.28
2018-12-18T13:17:24.576Z,4.39
2018-12-18T13:18:24.588Z,4.39